createdAt,value
2022-08-01T00:00:28.139Z,54.05
2022-08-01T00:03:13.251Z,54.02
2022-08-01T00:05:58.502Z,53.95
2022-08-01T00:08:43.681Z,54.00
2022-08-01T00:11:29.070Z,53.86
2022-08-01T00:14:14.268Z,54.12
2022-08-01T00:17:03.931Z,53.99
2022-08-01T00:19:52.988Z,54.15
2022-08-01T00:22:38.917Z,53.86
2022-08-01T00:25:34.327Z,54.20
2022-08-01T00:28:19.951Z,54.13
2022-08-01T00:31:05.431Z,53.87
2022-08-01T00:33:50.995Z,53.92
2022-08-01T00:36:36.382Z,54.32
2022-08-01T00:39:21.697Z,54.10
2022-08-01T00:42:08.894Z,54.10
2022-08-01T00:44:54.305Z,54.22
2022-08-01T00:47:39.894Z,54.17
2022-08-01T00:50:25.566Z,54.33
2022-08-01T00:53:11.256Z,54.52
2022-08-01T00:56:05.289Z,54.30
2022-08-01T00:58:51.217Z,54.21
2022-08-01T01:01:39.969Z,54.31
2022-08-01T01:04:25.572Z,54.49
2022-08-01T01:07:25.666Z,54.45
2022-08-01T01:10:37.219Z,54.99
2022-08-01T01:13:50.245Z,54.98
2022-08-01T01:16:41.870Z,54.76
2022-08-01T01:19:31.328Z,54.44
2022-08-01T01:23:01.035Z,54.88
2022-08-01T01:26:11.659Z,54.60
2022-08-01T01:29:03.044Z,54.51
2022-08-01T01:32:30.758Z,54.94
2022-08-01T01:35:26.030Z,54.50
2022-08-01T01:38:29.186Z,54.86
2022-08-01T01:41:18.030Z,54.55
2022-08-01T01:44:05.300Z,54.66
2022-08-01T01:46:52.188Z,54.49
2022-08-01T01:49:38.218Z,54.49
2022-08-01T01:52:26.069Z,54.67
2022-08-01T01:55:14.430Z,54.38
2022-08-01T01:58:01.329Z,54.70
2022-08-01T02:00:49.313Z,54.35
2022-08-01T02:03:37.961Z,54.52
2022-08-01T02:06:25.377Z,54.30
2022-08-01T02:09:12.236Z,54.79
2022-08-01T02:12:08.031Z,54.38
2022-08-01T02:14:55.717Z,54.51
2022-08-01T02:17:45.038Z,54.50
2022-08-01T02:20:31.672Z,54.43
2022-08-01T02:23:17.108Z,54.59
2022-08-01T02:26:10.949Z,54.45
2022-08-01T02:29:00.443Z,54.74
2022-08-01T02:31:48.860Z,54.63
2022-08-01T02:34:36.785Z,54.60
2022-08-01T02:37:24.877Z,54.86
2022-08-01T02:40:14.342Z,54.86
2022-08-01T02:43:03.446Z,55.37
2022-08-01T02:45:55.269Z,55.27
2022-08-01T02:48:42.587Z,55.67
2022-08-01T02:51:29.324Z,55.55
2022-08-01T02:54:16.946Z,55.88
2022-08-01T02:57:05.336Z,55.67
2022-08-01T02:59:54.864Z,56.01
2022-08-01T03:02:43.783Z,55.75
2022-08-01T03:05:31.190Z,55.89
2022-08-01T03:08:18.056Z,56.14
2022-08-01T03:11:04.839Z,56.03
2022-08-01T03:13:52.915Z,56.45
2022-08-01T03:16:40.884Z,56.81
2022-08-01T03:19:28.871Z,56.42
2022-08-01T03:22:15.947Z,56.58
2022-08-01T03:25:02.862Z,56.54
2022-08-01T03:27:55.030Z,56.57
2022-08-01T03:30:41.749Z,56.71
2022-08-01T03:33:27.624Z,56.64
2022-08-01T03:36:14.638Z,57.15
2022-08-01T03:39:03.572Z,57.17
2022-08-01T03:41:56.876Z,57.31
2022-08-01T03:44:45.681Z,57.07
2022-08-01T03:47:40.835Z,57.23
2022-08-01T03:50:34.792Z,57.50
2022-08-01T03:53:27.008Z,57.57
2022-08-01T03:56:15.396Z,57.26
2022-08-01T03:59:02.418Z,57.52
2022-08-01T04:01:48.842Z,57.37
2022-08-01T04:04:34.791Z,57.80
2022-08-01T04:07:31.718Z,57.23
2022-08-01T04:10:17.901Z,57.05
2022-08-01T04:13:03.637Z,57.21
2022-08-01T04:15:48.878Z,57.08
2022-08-01T04:18:34.265Z,57.11
2022-08-01T04:21:23.513Z,57.85
2022-08-01T04:24:17.522Z,57.68
2022-08-01T04:27:05.938Z,57.86
2022-08-01T04:29:56.086Z,58.06
2022-08-01T04:32:45.352Z,57.53
2022-08-01T04:36:01.989Z,58.04
2022-08-01T04:38:40.547Z,57.79
2022-08-01T04:41:26.789Z,58.19
2022-08-01T04:44:12.503Z,58.42
2022-08-01T04:46:57.946Z,58.01
2022-08-01T04:49:44.446Z,58.08
2022-08-01T04:52:36.506Z,57.90
2022-08-01T04:55:22.200Z,57.75
2022-08-01T04:58:09.073Z,58.07
2022-08-01T05:00:54.371Z,58.09
2022-08-01T05:03:39.905Z,57.75
2022-08-01T05:06:25.331Z,58.29
2022-08-01T05:09:10.954Z,57.87
2022-08-01T05:11:59.938Z,58.33
2022-08-01T05:14:47.159Z,57.88
2022-08-01T05:17:33.211Z,57.66
2022-08-01T05:20:18.857Z,58.06
2022-08-01T05:23:10.378Z,57.54
2022-08-01T05:25:59.069Z,57.29
2022-08-01T05:28:44.114Z,57.85
2022-08-01T05:31:29.801Z,57.27
2022-08-01T05:34:15.655Z,57.52
2022-08-01T05:37:01.222Z,57.43
2022-08-01T05:39:46.769Z,57.70
2022-08-01T05:42:32.181Z,57.69
2022-08-01T05:45:20.152Z,57.62
2022-08-01T05:48:06.966Z,57.60
2022-08-01T05:50:58.397Z,57.81
2022-08-01T05:53:44.085Z,58.00
2022-08-01T05:56:32.308Z,57.78
2022-08-01T05:59:17.779Z,57.93
2022-08-01T06:02:03.453Z,58.37
2022-08-01T06:04:49.265Z,58.19
2022-08-01T06:07:34.743Z,58.49
2022-08-01T06:10:24.020Z,58.61
2022-08-01T06:13:09.304Z,58.73
2022-08-01T06:15:54.576Z,59.08
2022-08-01T06:18:40.472Z,59.28
2022-08-01T06:21:25.985Z,59.36
2022-08-01T06:24:11.070Z,59.24
2022-08-01T06:26:56.786Z,59.24
2022-08-01T06:29:51.243Z,59.15
2022-08-01T06:32:39.839Z,59.83
2022-08-01T06:35:25.431Z,59.77
2022-08-01T06:38:11.186Z,59.85
2022-08-01T06:40:56.649Z,59.21
2022-08-01T06:43:41.940Z,59.71
2022-08-01T06:46:30.484Z,60.07
2022-08-01T06:49:23.345Z,59.71
2022-08-01T06:52:09.251Z,59.59
2022-08-01T06:54:55.331Z,59.74
2022-08-01T06:57:53.835Z,59.75
2022-08-01T07:00:39.449Z,60.20
2022-08-01T07:03:24.597Z,60.34
2022-08-01T07:06:10.664Z,60.45
2022-08-01T07:08:56.601Z,60.36
2022-08-01T07:11:42.351Z,61.23
2022-08-01T07:14:27.787Z,60.83
2022-08-01T07:17:13.394Z,61.45
2022-08-01T07:19:58.540Z,60.97
2022-08-01T07:22:44.074Z,61.58
2022-08-01T07:25:32.658Z,62.31
2022-08-01T07:28:17.913Z,61.04
2022-08-01T07:31:03.399Z,61.46
2022-08-01T07:33:49.500Z,60.90
2022-08-01T07:36:35.221Z,60.93
2022-08-01T07:39:21.085Z,61.57
2022-08-01T07:42:13.620Z,61.46
2022-08-01T07:44:59.650Z,61.00
2022-08-01T07:47:45.177Z,61.34
2022-08-01T07:50:31.038Z,60.90
2022-08-01T07:53:19.966Z,61.63
2022-08-01T07:56:08.897Z,61.37
2022-08-01T07:58:54.229Z,61.08
2022-08-01T08:01:39.893Z,61.09
2022-08-01T08:04:25.707Z,60.74
2022-08-01T08:07:11.259Z,60.65
2022-08-01T08:09:57.051Z,61.49
2022-08-01T08:12:42.432Z,61.04
2022-08-01T08:15:29.212Z,61.40
2022-08-01T08:18:14.721Z,60.72
2022-08-01T08:21:04.849Z,61.00
2022-08-01T08:24:10.645Z,61.39
2022-08-01T08:27:00.466Z,61.87
2022-08-01T08:29:46.545Z,61.75
2022-08-01T08:32:32.660Z,62.42
2022-08-01T08:35:23.405Z,62.93
2022-08-01T08:38:28.436Z,62.90
2022-08-01T08:41:20.672Z,62.20
2022-08-01T08:44:10.423Z,62.28
2022-08-01T08:46:58.840Z,62.81
2022-08-01T08:49:45.761Z,62.74
2022-08-01T08:52:38.927Z,63.00
2022-08-01T08:55:25.610Z,62.66
2022-08-01T08:58:16.034Z,62.53
2022-08-01T09:01:01.579Z,62.63
2022-08-01T09:03:46.721Z,63.11
2022-08-01T09:06:33.736Z,62.65
2022-08-01T09:09:19.146Z,63.67
2022-08-01T09:12:05.488Z,63.02
2022-08-01T09:14:54.447Z,63.09
2022-08-01T09:17:42.183Z,63.28
2022-08-01T09:20:28.667Z,62.98
2022-08-01T09:23:54.131Z,62.84
2022-08-01T09:26:40.594Z,62.97
2022-08-01T09:29:38.379Z,62.85
2022-08-01T09:32:31.414Z,63.04
2022-08-01T09:35:31.092Z,62.66
2022-08-01T09:38:19.065Z,62.65
2022-08-01T09:41:04.916Z,62.78
2022-08-01T09:43:51.689Z,63.10
2022-08-01T09:46:56.682Z,63.01
2022-08-01T09:49:49.846Z,62.46
2022-08-01T09:52:37.461Z,62.55
2022-08-01T09:55:25.932Z,62.33
2022-08-01T09:58:12.669Z,62.19
2022-08-01T10:01:01.204Z,62.30
2022-08-01T10:03:46.938Z,62.24
2022-08-01T10:06:32.784Z,61.86
2022-08-01T10:09:35.899Z,62.38
2022-08-01T10:12:26.206Z,62.33
2022-08-01T10:15:11.963Z,61.94
2022-08-01T10:18:06.139Z,61.55
2022-08-01T10:21:10.853Z,61.99
2022-08-01T10:24:01.182Z,62.18
2022-08-01T10:26:50.686Z,62.27
2022-08-01T10:29:58.920Z,62.37
2022-08-01T10:32:53.312Z,62.56
2022-08-01T10:35:46.750Z,63.00
2022-08-01T10:38:37.993Z,63.14
2022-08-01T10:41:25.704Z,63.54
2022-08-01T10:44:13.306Z,63.20
2022-08-01T10:47:10.690Z,63.50
2022-08-01T10:50:12.766Z,63.60
2022-08-01T10:53:16.750Z,64.41
2022-08-01T10:56:11.121Z,63.75
2022-08-01T10:59:06.406Z,63.34
2022-08-01T11:02:04.148Z,63.45
2022-08-01T11:04:57.064Z,63.60
2022-08-01T11:07:56.021Z,63.04
2022-08-01T11:10:46.698Z,62.68
2022-08-01T11:14:03.173Z,63.35
2022-08-01T11:16:49.021Z,63.31
2022-08-01T11:20:09.269Z,63.29
2022-08-01T11:23:04.766Z,62.64
2022-08-01T11:26:04.694Z,62.04
2022-08-01T11:29:20.982Z,62.36
2022-08-01T11:32:27.561Z,62.80
2022-08-01T11:35:13.616Z,62.25
2022-08-01T11:38:25.826Z,63.19
2022-08-01T11:41:11.822Z,63.06
2022-08-01T11:44:04.382Z,63.78
2022-08-01T11:47:09.684Z,63.80
2022-08-01T11:49:57.119Z,63.54
2022-08-01T11:52:46.540Z,63.17
2022-08-01T11:55:32.129Z,62.67
2022-08-01T11:58:27.572Z,62.32
2022-08-01T12:01:18.397Z,62.57
2022-08-01T12:04:04.147Z,62.78
2022-08-01T12:06:51.012Z,62.30
2022-08-01T12:09:36.333Z,62.19
2022-08-01T12:12:21.612Z,62.30
2022-08-01T12:15:10.051Z,62.21
2022-08-01T12:18:01.552Z,61.90
2022-08-01T12:20:56.909Z,61.88
2022-08-01T12:23:42.627Z,62.34
2022-08-01T12:26:44.145Z,61.68
2022-08-01T12:29:41.223Z,61.87
2022-08-01T12:32:33.826Z,61.74
2022-08-01T12:35:26.564Z,61.98
2022-08-01T12:38:18.042Z,61.82
2022-08-01T12:41:04.947Z,61.59
2022-08-01T12:43:50.234Z,61.91
2022-08-01T12:46:35.574Z,61.28
2022-08-01T12:49:21.190Z,60.95
2022-08-01T12:52:13.309Z,61.08
2022-08-01T12:55:22.961Z,61.32
2022-08-01T12:58:16.092Z,61.25
2022-08-01T13:01:11.118Z,61.45
2022-08-01T13:04:07.222Z,61.54
2022-08-01T13:06:56.214Z,60.77
2022-08-01T13:09:53.033Z,60.85
2022-08-01T13:12:40.198Z,60.61
2022-08-01T13:15:35.673Z,60.44
2022-08-01T13:18:28.619Z,60.25
2022-08-01T13:21:23.338Z,60.02
2022-08-01T13:24:14.065Z,59.97
2022-08-01T13:27:05.142Z,60.33
2022-08-01T13:29:53.943Z,60.06
2022-08-01T13:32:39.846Z,59.63
2022-08-01T13:35:25.883Z,59.78
2022-08-01T13:38:11.371Z,59.47
2022-08-01T13:41:00.302Z,59.33
2022-08-01T13:43:58.438Z,58.79
2022-08-01T13:46:49.799Z,58.78
2022-08-01T13:49:37.335Z,58.82
2022-08-01T13:52:23.448Z,58.84
2022-08-01T13:55:11.092Z,58.93
2022-08-01T13:57:57.395Z,58.60
2022-08-01T14:00:43.545Z,59.03
2022-08-01T14:03:33.836Z,58.70
2022-08-01T14:06:21.728Z,58.50
2022-08-01T14:09:17.896Z,58.59
2022-08-01T14:12:09.917Z,58.69
2022-08-01T14:14:55.408Z,58.44
2022-08-01T14:17:47.666Z,58.67
2022-08-01T14:20:35.275Z,58.08
2022-08-01T14:23:20.744Z,58.73
2022-08-01T14:26:12.072Z,58.39
2022-08-01T14:28:58.375Z,58.48
2022-08-01T14:31:43.814Z,58.40
2022-08-01T14:34:29.132Z,58.43
2022-08-01T14:37:14.422Z,58.86
2022-08-01T14:40:05.167Z,58.92
2022-08-01T14:42:52.910Z,58.57
2022-08-01T14:45:38.268Z,58.32
2022-08-01T14:48:23.495Z,58.59
2022-08-01T14:51:09.263Z,58.13
2022-08-01T14:53:54.906Z,58.47
2022-08-01T14:56:40.322Z,58.43
2022-08-01T14:59:25.836Z,57.91
2022-08-01T15:02:12.250Z,57.83
2022-08-01T15:04:57.584Z,58.35
2022-08-01T15:07:52.265Z,58.59
2022-08-01T15:10:39.493Z,58.17
2022-08-01T15:13:24.971Z,57.82
2022-08-01T15:16:11.893Z,57.30
2022-08-01T15:18:57.612Z,57.36
2022-08-01T15:21:42.702Z,57.66
2022-08-01T15:24:27.934Z,57.34
2022-08-01T15:27:13.333Z,57.06
2022-08-01T15:29:58.576Z,57.45
2022-08-01T15:32:44.614Z,57.17
2022-08-01T15:35:30.764Z,57.68
2022-08-01T15:38:16.319Z,57.43
2022-08-01T15:41:01.790Z,57.06
2022-08-01T15:43:47.024Z,57.18
2022-08-01T15:46:41.538Z,57.13
2022-08-01T15:49:27.483Z,56.63
2022-08-01T15:52:22.167Z,56.80
2022-08-01T15:55:10.110Z,56.97
2022-08-01T15:57:55.929Z,57.23
2022-08-01T16:00:41.215Z,57.37
2022-08-01T16:03:27.804Z,57.20
2022-08-01T16:06:13.395Z,57.35
2022-08-01T16:08:58.954Z,56.99
2022-08-01T16:11:50.634Z,56.94
2022-08-01T16:14:36.398Z,57.34
2022-08-01T16:17:21.635Z,56.93
2022-08-01T16:20:08.211Z,57.01
2022-08-01T16:22:53.534Z,57.23
2022-08-01T16:25:38.905Z,57.06
2022-08-01T16:28:24.922Z,57.24
2022-08-01T16:31:11.247Z,57.11
2022-08-01T16:34:15.919Z,56.74
2022-08-01T16:37:01.284Z,56.44
2022-08-01T16:39:47.432Z,56.48
2022-08-01T16:42:32.913Z,56.71
2022-08-01T16:45:21.114Z,56.69
2022-08-01T16:48:06.317Z,56.88
2022-08-01T16:50:52.997Z,56.99
2022-08-01T16:53:38.386Z,56.47
2022-08-01T16:56:23.682Z,56.82
2022-08-01T16:59:09.049Z,56.75
2022-08-01T17:02:00.167Z,56.77
2022-08-01T17:04:48.163Z,56.78
2022-08-01T17:07:34.236Z,56.82
2022-08-01T17:10:20.632Z,56.48
2022-08-01T17:13:06.399Z,56.92
2022-08-01T17:15:52.290Z,56.85
2022-08-01T17:18:40.226Z,56.79
2022-08-01T17:21:27.857Z,56.59
2022-08-01T17:24:16.401Z,57.12
2022-08-01T17:27:02.553Z,56.61
2022-08-01T17:29:47.826Z,56.71
2022-08-01T17:32:35.565Z,57.38
2022-08-01T17:35:21.145Z,56.93
2022-08-01T17:38:06.721Z,56.80
2022-08-01T17:40:52.588Z,56.40
2022-08-01T17:43:39.387Z,56.79
2022-08-01T17:46:25.253Z,56.66
2022-08-01T17:49:12.592Z,56.49
2022-08-01T17:51:59.775Z,56.45
2022-08-01T17:54:45.451Z,56.99
2022-08-01T17:57:33.523Z,56.78
2022-08-01T18:00:19.348Z,56.26
2022-08-01T18:03:08.218Z,56.46
2022-08-01T18:05:54.511Z,56.51
2022-08-01T18:08:42.161Z,56.56
2022-08-01T18:11:27.825Z,56.83
2022-08-01T18:14:14.385Z,56.59
2022-08-01T18:17:00.565Z,56.85
2022-08-01T18:19:46.756Z,57.00
2022-08-01T18:22:33.981Z,56.78
2022-08-01T18:25:20.308Z,57.01
2022-08-01T18:28:25.607Z,56.73
2022-08-01T18:31:13.133Z,57.07
2022-08-01T18:33:59.190Z,57.04
2022-08-01T18:36:44.462Z,57.02
2022-08-01T18:39:30.424Z,56.93
2022-08-01T18:42:18.633Z,57.20
2022-08-01T18:45:04.077Z,57.02
2022-08-01T18:47:51.401Z,56.88
2022-08-01T18:50:36.810Z,56.77
2022-08-01T18:53:24.113Z,57.24
2022-08-01T18:56:12.074Z,57.24
2022-08-01T18:58:58.232Z,56.92
2022-08-01T19:01:43.711Z,57.35
2022-08-01T19:04:29.717Z,56.72
2022-08-01T19:07:20.905Z,56.76
2022-08-01T19:10:18.976Z,57.06
2022-08-01T19:13:04.971Z,57.15
2022-08-01T19:15:51.317Z,56.67
2022-08-01T19:18:36.687Z,56.88
2022-08-01T19:21:24.002Z,56.71
2022-08-01T19:24:23.534Z,57.03
2022-08-01T19:27:13.077Z,56.54
2022-08-01T19:30:02.329Z,56.86
2022-08-01T19:32:49.049Z,57.04
2022-08-01T19:35:35.889Z,57.06
2022-08-01T19:38:22.432Z,56.98
2022-08-01T19:41:09.761Z,57.04
2022-08-01T19:44:03.631Z,57.06
2022-08-01T19:46:49.746Z,57.14
2022-08-01T19:49:35.729Z,56.94
2022-08-01T19:52:26.327Z,56.76
2022-08-01T19:55:13.250Z,57.17
2022-08-01T19:58:25.407Z,56.88
2022-08-01T20:01:04.391Z,57.29
2022-08-01T20:03:51.782Z,56.88
2022-08-01T20:06:42.317Z,56.73
2022-08-01T20:09:28.204Z,57.04
2022-08-01T20:12:14.805Z,57.04
2022-08-01T20:15:00.604Z,57.13
2022-08-01T20:17:46.083Z,56.70
2022-08-01T20:20:32.369Z,56.55
2022-08-01T20:23:23.796Z,56.51
2022-08-01T20:26:10.259Z,56.71
2022-08-01T20:28:57.357Z,56.94
2022-08-01T20:31:48.721Z,56.40
2022-08-01T20:34:39.629Z,56.05
2022-08-01T20:38:06.195Z,56.43
2022-08-01T20:40:31.226Z,56.32
2022-08-01T20:43:26.088Z,56.18
2022-08-01T20:46:11.317Z,56.34
2022-08-01T20:48:58.793Z,55.97
2022-08-01T20:51:45.989Z,56.12
2022-08-01T20:54:31.475Z,56.14
2022-08-01T20:57:25.321Z,56.31
2022-08-01T21:00:11.386Z,56.23
2022-08-01T21:03:04.855Z,56.29
2022-08-01T21:06:05.648Z,56.38
2022-08-01T21:08:56.116Z,56.32
2022-08-01T21:12:05.178Z,55.84
2022-08-01T21:14:53.633Z,56.17
2022-08-01T21:18:02.717Z,56.35
2022-08-01T21:21:19.086Z,56.35
2022-08-01T21:24:15.451Z,56.21
2022-08-01T21:27:03.307Z,56.05
2022-08-01T21:29:51.685Z,56.19
2022-08-01T21:32:37.686Z,55.89
2022-08-01T21:35:25.351Z,56.16
2022-08-01T21:38:11.966Z,56.20
2022-08-01T21:41:02.827Z,56.00
2022-08-01T21:43:48.745Z,56.04
2022-08-01T21:46:34.007Z,55.81
2022-08-01T21:49:21.702Z,56.01
2022-08-01T21:52:18.270Z,56.08
2022-08-01T21:55:17.847Z,56.24
2022-08-01T21:58:16.510Z,55.99
2022-08-01T22:01:24.697Z,55.90
2022-08-01T22:04:14.838Z,56.01
2022-08-01T22:07:02.658Z,56.30
2022-08-01T22:09:53.543Z,56.21
2022-08-01T22:12:39.309Z,56.40
2022-08-01T22:15:26.627Z,56.20
2022-08-01T22:18:30.676Z,56.01
2022-08-01T22:21:17.333Z,56.31
2022-08-01T22:24:05.109Z,56.22
2022-08-01T22:26:53.145Z,56.05
2022-08-01T22:29:38.479Z,56.39
2022-08-01T22:32:30.276Z,56.38
2022-08-01T22:35:17.108Z,56.50
2022-08-01T22:38:02.186Z,56.29
2022-08-01T22:40:51.057Z,56.10
2022-08-01T22:43:42.319Z,56.27
2022-08-01T22:46:56.071Z,56.24
2022-08-01T22:49:56.160Z,56.20
2022-08-01T22:52:54.933Z,56.51
2022-08-01T22:55:59.218Z,56.54
2022-08-01T22:58:45.027Z,56.45
2022-08-01T23:01:33.145Z,56.28
2022-08-01T23:05:01.928Z,56.50
2022-08-01T23:07:54.520Z,56.39
2022-08-01T23:10:41.029Z,56.56
2022-08-01T23:13:29.083Z,56.40
2022-08-01T23:16:17.488Z,56.42
2022-08-01T23:19:03.535Z,56.58
2022-08-01T23:21:49.456Z,56.39
2022-08-01T23:24:36.042Z,56.42
2022-08-01T23:27:51.831Z,56.33
2022-08-01T23:30:35.773Z,56.43
2022-08-01T23:33:21.101Z,56.42
2022-08-01T23:36:06.372Z,56.33
2022-08-01T23:38:51.658Z,56.29
2022-08-01T23:41:57.250Z,56.34
2022-08-01T23:44:42.582Z,56.22
2022-08-01T23:47:27.948Z,56.11
2022-08-01T23:50:13.421Z,56.27
2022-08-01T23:52:59.078Z,56.02
2022-08-01T23:55:44.531Z,56.26
2022-08-01T23:58:30.452Z,55.99
